• pl
  • eng

Awiacja
Komunikaty METAR z lotnisk wojskowych. 23:01 17.10.2018

METAR EPCE 172100Z 06002KT 7000 SCT209 07/06
Q1021 RMK 068 096 3/3 =

METAR EPDA 172100Z 13003KT 8000 NSC 07/07
Q1020 RMK 074 099 0/0 =

METAR EPDE 172100Z AUTO 10002KT 6000 07/06 Q1022 RMK 070 090 ///=

METAR EPIR 172100Z 15004KT CAVOK 12/08 Q1021 RMK 122 073 3/3=

METAR EPKS 172100Z 09003KT CAVOK 10/07 Q1020 RMK 098 082 0/0=

METAR EPLK 172100Z 11004KT CAVOK 13/09 Q1021 RMK 134 074 6/6=

METAR EPLY 172100Z VRB02KT CAVOK 13/09 Q1021 RMK 130 077 6/6=

METAR EPMB 172100Z AUTO 08004KT 9999 FEW230/// 08/06 Q1021 RMK 083
085 2/2=

METAR EPMI 172100Z VRB02KT 6000 SCT080 08/07 Q1020 RMK 076 094 4/4=
009
SAPL97 SOPR 172100 RRD

METAR EPMM 172100Z 13003KT CAVOK 08/06 Q1022 RMK 075 089 0/0=

METAR EPNA 172100Z NIL=

METAR EPOK 172100Z VRB02KT 9999 FEW215 12/08
Q1020 RMK 118 080 2/2 =

METAR EPPR 172100Z 00000KT 6000 NSC 08/07 Q1021 RMK 083 091 3/3=

METAR EPPW 172100Z 10004KT CAVOK 12/08 Q1020 RMK 116 080 3/3 =

METAR EPRA 172100Z 15002KT CAVOK 09/06 Q1021 RMK 088 083 5/5=

METAR EPSN 172100Z 12002KT 8000 NSC 08/07 Q1020 RMK 083 094 0/0=

METAR EPTM 172100Z 14002KT CAVOK 09/07 Q1021 RMK 094 084 6/4=
 METAR COR EPPW
Lokalizacja:
Czas::
Średnia prędkość wiatru: węzłów
Widzialność:0 metrów
Awiacja.imgw.pl jest pogodowym serwisem informacyjnym
Instytutu Meteorologii i Gospodarki Wodnej Państwowego Instytutu Badawczego.
Copyright IMGW PIB 2009-2011© Wszelkie prawa zastrzeżone.